createdAt,value
2023-03-24T00:00:31.929Z,5.25
2023-03-24T00:02:58.681Z,6.15
2023-03-24T00:05:25.569Z,5.60
2023-03-24T00:07:55.056Z,5.55
2023-03-24T00:10:22.528Z,5.00
2023-03-24T00:12:50.227Z,4.65
2023-03-24T00:15:21.794Z,4.50
2023-03-24T00:17:49.825Z,3.92
2023-03-24T00:20:19.691Z,4.38
2023-03-24T00:22:48.997Z,4.03
2023-03-24T00:25:18.000Z,4.45
2023-03-24T00:27:45.963Z,4.05
2023-03-24T00:30:13.417Z,4.18
2023-03-24T00:32:40.222Z,4.35
2023-03-24T00:35:09.936Z,4.60
2023-03-24T00:37:37.548Z,4.13
2023-03-24T00:40:06.984Z,3.95
2023-03-24T00:42:35.228Z,3.75
2023-03-24T00:45:03.698Z,4.25
2023-03-24T00:47:34.609Z,3.53
2023-03-24T00:50:01.542Z,3.90
2023-03-24T00:52:28.276Z,4.10
2023-03-24T00:54:55.135Z,4.20
2023-03-24T00:57:22.307Z,4.03
2023-03-24T00:59:50.533Z,3.67
2023-03-24T01:02:19.533Z,3.40
2023-03-24T01:04:46.580Z,3.63
2023-03-24T01:07:14.849Z,3.15
2023-03-24T01:09:42.740Z,3.35
2023-03-24T01:12:09.512Z,3.65
2023-03-24T01:14:36.271Z,3.55
2023-03-24T01:17:03.063Z,3.33
2023-03-24T01:19:29.830Z,3.63
2023-03-24T01:21:56.646Z,3.50
2023-03-24T01:24:23.360Z,3.10
2023-03-24T01:26:50.182Z,3.80
2023-03-24T01:29:16.952Z,4.00
2023-03-24T01:31:43.810Z,3.78
2023-03-24T01:34:11.746Z,3.30
2023-03-24T01:36:41.840Z,3.95
2023-03-24T01:39:11.348Z,3.10
2023-03-24T01:41:41.897Z,3.60
2023-03-24T01:44:34.433Z,3.50
2023-03-24T01:47:03.160Z,3.40
2023-03-24T01:49:34.859Z,3.28
2023-03-24T01:52:04.638Z,3.15
2023-03-24T01:54:40.885Z,3.10
2023-03-24T01:57:36.695Z,3.00
2023-03-24T02:00:10.708Z,2.93
2023-03-24T02:02:52.056Z,3.53
2023-03-24T02:05:21.138Z,3.35
2023-03-24T02:08:16.722Z,3.35
2023-03-24T02:10:45.860Z,3.22
2023-03-24T02:13:14.242Z,3.30
2023-03-24T02:16:19.394Z,2.58
2023-03-24T02:19:22.910Z,3.10
2023-03-24T02:21:53.948Z,2.88
2023-03-24T02:24:49.136Z,3.08
2023-03-24T02:27:28.264Z,2.78
2023-03-24T02:30:16.896Z,2.95
2023-03-24T02:33:14.730Z,2.88
2023-03-24T02:36:19.212Z,2.80
2023-03-24T02:39:10.730Z,3.00
2023-03-24T02:42:04.551Z,2.88
2023-03-24T02:45:05.400Z,2.90
2023-03-24T02:47:32.303Z,2.70
2023-03-24T02:50:01.817Z,2.75
2023-03-24T02:52:50.260Z,2.40
2023-03-24T02:55:20.590Z,2.90
2023-03-24T02:58:06.744Z,2.90
2023-03-24T03:03:26.984Z,2.40
2023-03-24T03:06:13.016Z,3.33
2023-03-24T03:08:41.705Z,3.10
2023-03-24T03:11:14.121Z,3.17
2023-03-24T03:13:50.335Z,3.28
2023-03-24T03:16:24.663Z,3.42
2023-03-24T03:18:58.079Z,3.40
2023-03-24T03:21:29.449Z,3.13
2023-03-24T03:24:27.316Z,3.10
2023-03-24T03:27:02.988Z,3.35
2023-03-24T03:29:34.312Z,3.25
2023-03-24T03:32:14.419Z,3.53
2023-03-24T03:34:46.929Z,3.65
2023-03-24T03:37:52.562Z,3.42
2023-03-24T03:40:27.883Z,3.35
2023-03-24T03:42:55.018Z,3.63
2023-03-24T03:45:21.763Z,3.88
2023-03-24T03:47:48.879Z,3.60
2023-03-24T03:50:15.955Z,4.22
2023-03-24T03:52:43.901Z,3.60
2023-03-24T03:55:12.244Z,4.05
2023-03-24T03:57:40.984Z,3.33
2023-03-24T04:00:09.205Z,3.90
2023-03-24T04:03:09.440Z,3.83
2023-03-24T04:05:38.424Z,3.60
2023-03-24T04:08:46.818Z,3.60
2023-03-24T04:11:40.155Z,4.05
2023-03-24T04:14:30.924Z,4.32
2023-03-24T04:17:13.213Z,4.10
2023-03-24T04:20:00.670Z,4.32
2023-03-24T04:23:14.874Z,4.43
2023-03-24T04:25:44.716Z,4.85
2023-03-24T04:28:17.632Z,4.55
2023-03-24T04:30:47.080Z,4.10
2023-03-24T04:33:22.805Z,4.60
2023-03-24T04:38:24.963Z,4.90
2023-03-24T04:40:55.603Z,4.82
2023-03-24T04:43:27.234Z,5.45
2023-03-24T04:45:55.667Z,5.32
2023-03-24T04:48:22.413Z,5.13
2023-03-24T04:50:56.345Z,5.32
2023-03-24T04:53:23.787Z,5.30
2023-03-24T04:55:50.453Z,5.57
2023-03-24T04:58:18.529Z,5.60
2023-03-24T05:00:45.783Z,5.93
2023-03-24T05:03:16.411Z,6.10
2023-03-24T05:05:45.304Z,5.70
2023-03-24T05:08:12.372Z,6.18
2023-03-24T05:10:39.583Z,6.20
2023-03-24T05:13:07.524Z,6.05
2023-03-24T05:15:34.888Z,7.45
2023-03-24T05:18:02.048Z,6.07
2023-03-24T05:20:28.775Z,7.13
2023-03-24T05:22:55.724Z,5.97
2023-03-24T05:25:22.452Z,6.55
2023-03-24T05:27:49.888Z,6.40
2023-03-24T05:30:17.013Z,6.20
2023-03-24T05:32:45.449Z,6.15
2023-03-24T05:35:14.000Z,6.80
2023-03-24T05:37:42.178Z,5.90
2023-03-24T05:40:10.393Z,6.10
2023-03-24T05:42:40.297Z,5.38
2023-03-24T05:45:09.131Z,6.13
2023-03-24T05:47:37.361Z,5.95
2023-03-24T05:50:05.629Z,5.93
2023-03-24T05:52:34.358Z,5.78
2023-03-24T05:55:01.241Z,5.30
2023-03-24T05:57:29.448Z,5.30
2023-03-24T05:59:57.604Z,5.63
2023-03-24T06:02:24.698Z,6.00
2023-03-24T06:04:51.953Z,5.70
2023-03-24T06:07:19.066Z,6.13
2023-03-24T06:09:45.779Z,5.45
2023-03-24T06:12:13.467Z,5.50
2023-03-24T06:14:40.286Z,5.50
2023-03-24T06:17:10.048Z,6.03
2023-03-24T06:19:36.795Z,6.00
2023-03-24T06:22:03.517Z,6.32
2023-03-24T06:24:30.467Z,5.60
2023-03-24T06:26:57.155Z,5.47
2023-03-24T06:29:24.056Z,5.07
2023-03-24T06:31:50.738Z,5.45
2023-03-24T06:34:18.849Z,5.32
2023-03-24T06:36:48.344Z,5.28
2023-03-24T06:39:16.137Z,5.55
2023-03-24T06:41:44.987Z,4.70
2023-03-24T06:44:13.589Z,5.25
2023-03-24T06:46:41.841Z,5.53
2023-03-24T06:49:10.911Z,5.10
2023-03-24T06:51:41.936Z,5.30
2023-03-24T06:54:12.400Z,5.55
2023-03-24T06:56:40.335Z,5.28
2023-03-24T06:59:07.092Z,5.78
2023-03-24T07:01:34.259Z,5.28
2023-03-24T07:04:04.292Z,5.25
2023-03-24T07:06:34.486Z,5.40
2023-03-24T07:09:03.205Z,5.72
2023-03-24T07:11:31.438Z,4.80
2023-03-24T07:13:58.443Z,5.10
2023-03-24T07:16:29.285Z,6.50
2023-03-24T07:18:59.290Z,4.93
2023-03-24T07:21:28.369Z,5.13
2023-03-24T07:23:55.426Z,5.30
2023-03-24T07:26:23.026Z,5.07
2023-03-24T07:28:53.607Z,5.20
2023-03-24T07:31:22.631Z,4.82
2023-03-24T07:33:50.467Z,5.10
2023-03-24T07:36:19.650Z,4.90
2023-03-24T07:38:46.714Z,4.85
2023-03-24T07:41:13.663Z,4.38
2023-03-24T07:43:49.276Z,4.30
2023-03-24T07:46:19.621Z,4.47
2023-03-24T07:48:58.120Z,4.20
2023-03-24T07:51:35.835Z,4.70
2023-03-24T07:54:05.784Z,4.20
2023-03-24T07:56:33.088Z,4.22
2023-03-24T07:59:00.092Z,4.25
2023-03-24T08:01:26.952Z,4.57
2023-03-24T08:03:58.647Z,4.97
2023-03-24T08:06:26.230Z,5.28
2023-03-24T08:08:53.760Z,4.80
2023-03-24T08:11:24.791Z,4.43
2023-03-24T08:13:51.948Z,4.45
2023-03-24T08:16:19.694Z,4.63
2023-03-24T08:18:47.409Z,5.28
2023-03-24T08:21:16.291Z,4.75
2023-03-24T08:23:43.209Z,5.00
2023-03-24T08:26:11.199Z,4.85
2023-03-24T08:28:38.723Z,5.70
2023-03-24T08:31:07.090Z,5.40
2023-03-24T08:33:38.414Z,5.50
2023-03-24T08:36:10.510Z,5.05
2023-03-24T08:38:38.344Z,5.60
2023-03-24T08:41:07.594Z,5.28
2023-03-24T08:43:37.614Z,5.53
2023-03-24T08:46:13.923Z,5.78
2023-03-24T08:48:46.964Z,5.43
2023-03-24T08:54:05.421Z,5.97
2023-03-24T08:56:32.955Z,5.32
2023-03-24T08:59:11.536Z,5.43
2023-03-24T09:01:45.628Z,5.57
2023-03-24T09:04:15.182Z,5.40
2023-03-24T09:06:47.397Z,5.80
2023-03-24T09:09:15.859Z,5.90
2023-03-24T09:11:46.214Z,5.35
2023-03-24T09:14:17.804Z,5.40
2023-03-24T09:16:48.665Z,6.00
2023-03-24T09:19:16.670Z,5.93
2023-03-24T09:21:47.613Z,5.78
2023-03-24T09:24:18.527Z,5.18
2023-03-24T09:26:56.171Z,5.32
2023-03-24T09:29:33.665Z,5.28
2023-03-24T09:32:09.860Z,4.80
2023-03-24T09:34:43.104Z,5.63
2023-03-24T09:37:21.348Z,5.10
2023-03-24T09:39:48.694Z,5.40
2023-03-24T09:42:24.357Z,4.68
2023-03-24T09:44:56.749Z,4.93
2023-03-24T09:47:45.396Z,4.85
2023-03-24T09:50:22.834Z,5.30
2023-03-24T09:52:56.840Z,4.95
2023-03-24T09:55:32.768Z,5.03
2023-03-24T10:00:57.761Z,5.05
2023-03-24T10:03:30.961Z,4.78
2023-03-24T10:06:44.000Z,4.63
2023-03-24T10:09:23.728Z,4.80
2023-03-24T10:12:39.355Z,5.10
2023-03-24T10:15:42.634Z,4.07
2023-03-24T10:28:52.536Z,3.05
2023-03-24T10:32:37.599Z,2.72
2023-03-24T10:38:31.536Z,2.90
2023-03-24T10:41:10.885Z,3.05
2023-03-24T10:43:38.768Z,3.28
2023-03-24T10:46:42.379Z,3.20
2023-03-24T10:49:21.049Z,4.43
2023-03-24T10:51:53.462Z,3.42
2023-03-24T10:54:25.911Z,3.50
2023-03-24T10:57:15.070Z,3.22
2023-03-24T11:00:08.055Z,3.40
2023-03-24T11:02:36.098Z,3.78
2023-03-24T11:05:33.554Z,3.13
2023-03-24T11:08:34.628Z,3.17
2023-03-24T11:11:06.263Z,3.47
2023-03-24T11:13:38.698Z,3.40
2023-03-24T11:16:30.217Z,3.40
2023-03-24T11:19:05.790Z,3.58
2023-03-24T11:21:36.590Z,4.55
2023-03-24T11:24:14.994Z,3.10
2023-03-24T11:26:49.587Z,2.97
2023-03-24T11:29:20.988Z,2.83
2023-03-24T11:32:08.120Z,3.22
2023-03-24T11:34:40.312Z,2.72
2023-03-24T11:37:31.373Z,3.10
2023-03-24T11:40:21.769Z,2.83
2023-03-24T11:42:53.460Z,3.10
2023-03-24T11:45:46.044Z,2.90
2023-03-24T11:48:38.917Z,2.60
2023-03-24T11:51:16.565Z,2.88
2023-03-24T11:53:51.264Z,2.65
2023-03-24T11:57:01.106Z,2.45
2023-03-24T11:59:50.905Z,2.25
2023-03-24T12:02:44.162Z,2.50
2023-03-24T12:05:37.429Z,2.65
2023-03-24T12:08:52.198Z,2.20
2023-03-24T12:12:00.514Z,2.70
2023-03-24T12:15:20.635Z,2.33
2023-03-24T12:18:19.832Z,2.88
2023-03-24T12:21:08.000Z,2.58
2023-03-24T12:23:57.560Z,2.80
2023-03-24T12:26:32.919Z,2.63
2023-03-24T12:29:40.405Z,2.25
2023-03-24T12:32:40.183Z,2.55
2023-03-24T12:35:39.767Z,2.65
2023-03-24T12:38:43.535Z,2.55
2023-03-24T12:41:38.865Z,2.40
2023-03-24T12:44:31.098Z,1.95
2023-03-24T12:47:27.114Z,1.75
2023-03-24T12:50:06.356Z,1.90
2023-03-24T12:53:06.663Z,1.80
2023-03-24T12:56:01.885Z,1.80
2023-03-24T12:58:46.178Z,1.80
2023-03-24T13:01:53.048Z,1.75
2023-03-24T13:04:33.248Z,2.53
2023-03-24T13:07:11.605Z,1.80
2023-03-24T13:10:05.289Z,2.17
2023-03-24T13:12:56.474Z,2.03
2023-03-24T13:15:34.374Z,2.10
2023-03-24T13:18:12.178Z,2.28
2023-03-24T13:20:54.799Z,2.22
2023-03-24T13:23:25.043Z,2.45
2023-03-24T13:26:00.138Z,2.83
2023-03-24T13:28:35.936Z,2.50
2023-03-24T13:31:07.981Z,2.67
2023-03-24T13:33:38.074Z,2.90
2023-03-24T13:36:35.052Z,4.03
2023-03-24T13:39:08.649Z,3.58
2023-03-24T13:41:37.045Z,3.35
2023-03-24T13:44:21.467Z,3.92
2023-03-24T13:47:24.100Z,3.58
2023-03-24T13:50:02.581Z,3.20
2023-03-24T13:52:36.667Z,3.25
2023-03-24T13:55:15.466Z,3.20
2023-03-24T13:57:55.694Z,3.10
2023-03-24T14:00:33.278Z,2.53
2023-03-24T14:03:14.477Z,2.63
2023-03-24T14:06:02.217Z,2.72
2023-03-24T14:08:53.707Z,2.38
2023-03-24T14:11:35.036Z,2.60
2023-03-24T14:14:20.407Z,2.88
2023-03-24T14:17:06.732Z,2.17
2023-03-24T14:19:37.610Z,1.90
2023-03-24T14:22:26.359Z,1.58
2023-03-24T14:25:06.834Z,1.70
2023-03-24T14:27:40.584Z,1.77
2023-03-24T14:30:10.348Z,2.60
2023-03-24T14:32:45.455Z,2.38
2023-03-24T14:35:46.121Z,2.08
2023-03-24T14:38:16.262Z,2.60
2023-03-24T14:40:47.144Z,2.25
2023-03-24T14:43:29.358Z,3.10
2023-03-24T14:46:07.153Z,2.80
2023-03-24T14:48:34.401Z,2.42
2023-03-24T14:51:07.595Z,2.63
2023-03-24T14:53:38.181Z,2.58
2023-03-24T14:56:15.126Z,2.63
2023-03-24T14:58:47.826Z,3.05
2023-03-24T15:01:15.971Z,3.03
2023-03-24T15:04:00.840Z,2.72
2023-03-24T15:06:27.822Z,2.60
2023-03-24T15:08:57.401Z,3.03
2023-03-24T15:11:28.614Z,2.47
2023-03-24T15:14:00.506Z,3.00
2023-03-24T15:16:30.551Z,3.30
2023-03-24T15:19:02.402Z,2.67
2023-03-24T15:21:37.885Z,2.20
2023-03-24T15:24:21.887Z,2.10
2023-03-24T15:27:06.962Z,2.50
2023-03-24T15:29:43.287Z,2.10
2023-03-24T15:32:20.946Z,2.15
2023-03-24T15:34:54.234Z,2.60
2023-03-24T15:37:42.471Z,2.45
2023-03-24T15:40:32.256Z,2.15
2023-03-24T15:43:05.723Z,2.10
2023-03-24T15:45:37.795Z,2.10
2023-03-24T15:48:13.320Z,1.98
2023-03-24T15:53:15.086Z,1.95
2023-03-24T15:55:46.064Z,1.95
2023-03-24T15:58:22.886Z,2.50
2023-03-24T16:01:01.772Z,2.10
2023-03-24T16:03:31.061Z,2.10
2023-03-24T16:06:00.558Z,2.03
2023-03-24T16:08:33.700Z,1.90
2023-03-24T16:11:05.541Z,2.40
2023-03-24T16:13:41.352Z,2.45
2023-03-24T16:16:30.267Z,2.30
2023-03-24T16:18:57.453Z,2.10
2023-03-24T16:21:27.402Z,2.20
2023-03-24T16:23:56.244Z,1.80
2023-03-24T16:26:30.598Z,2.10
2023-03-24T16:29:23.009Z,1.83
2023-03-24T16:31:52.646Z,2.58
2023-03-24T16:34:22.004Z,2.50
2023-03-24T16:36:53.790Z,2.47
2023-03-24T16:39:26.373Z,2.28
2023-03-24T16:41:55.095Z,2.85
2023-03-24T16:44:27.060Z,2.40
2023-03-24T16:46:55.441Z,2.70
2023-03-24T16:49:25.722Z,2.47
2023-03-24T16:51:53.191Z,2.75
2023-03-24T16:54:21.205Z,3.17
2023-03-24T16:56:50.781Z,3.00
2023-03-24T16:59:17.825Z,3.20
2023-03-24T17:01:46.585Z,2.80
2023-03-24T17:04:20.732Z,2.95
2023-03-24T17:06:51.530Z,3.33
2023-03-24T17:09:19.419Z,2.80
2023-03-24T17:11:56.878Z,3.08
2023-03-24T17:14:24.914Z,3.25
2023-03-24T17:16:53.774Z,2.75
2023-03-24T17:19:24.680Z,3.20
2023-03-24T17:22:04.111Z,2.90
2023-03-24T17:24:34.817Z,3.28
2023-03-24T17:27:02.974Z,3.47
2023-03-24T17:29:29.811Z,3.67
2023-03-24T17:31:56.650Z,4.25
2023-03-24T17:34:23.798Z,4.18
2023-03-24T17:36:51.878Z,3.63
2023-03-24T17:39:20.689Z,3.75
2023-03-24T17:41:47.691Z,3.90
2023-03-24T17:44:14.880Z,3.75
2023-03-24T17:46:42.201Z,3.97
2023-03-24T17:49:09.842Z,3.90
2023-03-24T17:51:37.383Z,4.20
2023-03-24T17:54:04.704Z,4.78
2023-03-24T17:56:35.468Z,4.40
2023-03-24T17:59:05.367Z,4.63
2023-03-24T18:01:33.299Z,5.30
2023-03-24T18:04:02.009Z,5.88
2023-03-24T18:06:29.400Z,6.47
2023-03-24T18:08:57.525Z,8.05
2023-03-24T18:11:25.185Z,10.55
2023-03-24T18:13:52.296Z,9.52
2023-03-24T18:16:21.910Z,10.55
2023-03-24T18:18:51.238Z,8.73
2023-03-24T18:21:21.523Z,9.20
2023-03-24T18:23:49.793Z,9.15
2023-03-24T18:26:18.371Z,9.48
2023-03-24T18:28:46.170Z,8.48
2023-03-24T18:31:42.885Z,8.10
2023-03-24T18:34:14.752Z,7.53
2023-03-24T18:36:49.701Z,9.35
2023-03-24T18:39:28.771Z,11.57
2023-03-24T18:42:03.528Z,10.73
2023-03-24T18:44:36.494Z,11.23
2023-03-24T18:47:05.620Z,12.55
2023-03-24T18:49:39.929Z,11.25
2023-03-24T18:52:24.398Z,11.02
2023-03-24T18:55:09.946Z,9.77
2023-03-24T18:57:51.934Z,10.70
2023-03-24T19:00:28.109Z,11.43
2023-03-24T19:02:58.264Z,9.20
2023-03-24T19:08:24.906Z,9.20
2023-03-24T19:13:50.922Z,7.85
2023-03-24T19:16:29.026Z,7.40
2023-03-24T19:19:07.906Z,9.48
2023-03-24T19:21:45.256Z,6.57
2023-03-24T19:24:20.382Z,7.05
2023-03-24T19:26:59.524Z,6.95
2023-03-24T19:29:42.386Z,7.53
2023-03-24T19:32:27.445Z,7.85
2023-03-24T19:35:14.305Z,6.95
2023-03-24T19:38:45.813Z,5.78
2023-03-24T19:41:12.358Z,6.15
2023-03-24T19:44:11.255Z,6.43
2023-03-24T19:52:48.713Z,4.95
2023-03-24T20:06:42.365Z,5.03
2023-03-24T20:30:15.054Z,3.10
2023-03-24T20:32:43.682Z,2.83
2023-03-24T20:35:11.320Z,2.70
2023-03-24T20:37:40.090Z,2.10
2023-03-24T20:40:08.741Z,2.30
2023-03-24T20:42:48.125Z,2.47
2023-03-24T20:45:21.441Z,1.98
2023-03-24T20:47:55.871Z,1.92
2023-03-24T20:50:30.855Z,2.08
2023-03-24T20:53:16.159Z,1.83
2023-03-24T20:55:58.887Z,2.45
2023-03-24T20:58:31.361Z,2.40
2023-03-24T21:01:24.326Z,2.30
2023-03-24T21:03:53.229Z,2.60
2023-03-24T21:07:06.023Z,2.50
2023-03-24T21:09:54.467Z,3.08
2023-03-24T21:12:24.375Z,3.35
2023-03-24T21:14:54.888Z,4.00
2023-03-24T21:17:22.311Z,3.25
2023-03-24T21:19:49.202Z,3.00
2023-03-24T21:22:16.055Z,3.53
2023-03-24T21:24:46.853Z,2.80
2023-03-24T21:27:17.296Z,3.67
2023-03-24T21:29:46.433Z,3.50
2023-03-24T21:32:28.007Z,3.30
2023-03-24T21:35:01.807Z,3.63
2023-03-24T21:37:35.994Z,4.30
2023-03-24T21:40:05.373Z,4.68
2023-03-24T21:42:37.203Z,4.22
2023-03-24T21:45:07.095Z,4.00
2023-03-24T21:47:34.104Z,4.07
2023-03-24T21:50:02.950Z,4.70
2023-03-24T21:52:32.331Z,3.58
2023-03-24T21:55:02.012Z,3.40
2023-03-24T21:57:28.803Z,4.10
2023-03-24T21:59:59.449Z,3.72
2023-03-24T22:02:26.214Z,4.38
2023-03-24T22:05:04.769Z,4.05
2023-03-24T22:07:34.187Z,4.97
2023-03-24T22:10:01.009Z,4.97
2023-03-24T22:12:27.708Z,5.07
2023-03-24T22:14:57.403Z,5.03
2023-03-24T22:17:25.535Z,5.57
2023-03-24T22:19:52.305Z,4.70
2023-03-24T22:22:20.246Z,4.82
2023-03-24T22:24:49.074Z,5.30
2023-03-24T22:27:20.122Z,5.70
2023-03-24T22:29:46.864Z,5.38
2023-03-24T22:32:16.287Z,5.22
2023-03-24T22:34:45.297Z,5.53
2023-03-24T22:37:14.248Z,5.45
2023-03-24T22:39:40.969Z,5.05
2023-03-24T22:42:07.970Z,5.28
2023-03-24T22:44:34.785Z,5.63
2023-03-24T22:47:02.431Z,5.53
2023-03-24T22:49:30.491Z,5.32
2023-03-24T22:51:57.271Z,5.25
2023-03-24T22:54:24.035Z,5.38
2023-03-24T22:56:50.791Z,5.47
2023-03-24T22:59:18.172Z,5.10
2023-03-24T23:01:47.923Z,5.32
2023-03-24T23:04:20.939Z,4.95
2023-03-24T23:06:47.637Z,5.00
2023-03-24T23:09:14.760Z,5.25
2023-03-24T23:11:43.016Z,4.82
2023-03-24T23:14:11.081Z,4.68
2023-03-24T23:16:39.122Z,4.93
2023-03-24T23:19:07.492Z,4.80
2023-03-24T23:21:34.642Z,4.85
2023-03-24T23:24:01.444Z,4.72
2023-03-24T23:26:28.136Z,4.30
2023-03-24T23:28:54.857Z,4.25
2023-03-24T23:31:26.359Z,4.38
2023-03-24T23:33:56.372Z,3.80
2023-03-24T23:36:23.894Z,4.10
2023-03-24T23:38:50.691Z,4.25
2023-03-24T23:41:18.092Z,3.95
2023-03-24T23:43:48.580Z,4.30
2023-03-24T23:46:18.068Z,4.38
2023-03-24T23:48:45.199Z,4.00
2023-03-24T23:51:13.498Z,3.70
2023-03-24T23:53:40.283Z,3.80
2023-03-24T23:56:11.817Z,3.45
2023-03-24T23:58:43.698Z,3.22
